createdAt,value
2023-04-10T00:01:35.990Z,8.35
2023-04-10T00:04:06.737Z,8.34
2023-04-10T00:06:41.286Z,8.31
2023-04-10T00:09:11.770Z,8.30
2023-04-10T00:11:42.213Z,8.27
2023-04-10T00:14:12.424Z,8.23
2023-04-10T00:16:42.688Z,8.23
2023-04-10T00:19:12.983Z,8.21
2023-04-10T00:21:46.266Z,8.24
2023-04-10T00:24:16.714Z,8.18
2023-04-10T00:26:46.985Z,8.20
2023-04-10T00:29:17.293Z,8.18
2023-04-10T00:31:49.380Z,8.08
2023-04-10T00:34:19.683Z,8.11
2023-04-10T00:36:52.582Z,8.10
2023-04-10T00:39:22.794Z,8.04
2023-04-10T00:41:53.768Z,8.02
2023-04-10T00:44:24.095Z,8.05
2023-04-10T00:46:54.776Z,8.07
2023-04-10T00:49:29.986Z,7.86
2023-04-10T00:52:03.169Z,8.06
2023-04-10T00:54:36.371Z,8.08
2023-04-10T01:10:56.731Z,7.90
2023-04-10T01:23:36.582Z,7.78
2023-04-10T01:26:12.742Z,7.68
2023-04-10T01:29:07.260Z,7.67
2023-04-10T01:31:41.953Z,7.57
2023-04-10T01:34:14.862Z,7.51
2023-04-10T01:36:53.629Z,7.44
2023-04-10T01:39:25.910Z,7.39
2023-04-10T01:41:58.139Z,7.36
2023-04-10T01:44:35.200Z,7.33
2023-04-10T01:47:10.162Z,7.25
2023-04-10T01:49:46.888Z,7.18
2023-04-10T01:52:19.498Z,7.14
2023-04-10T01:54:51.451Z,7.06
2023-04-10T01:57:22.234Z,7.02
2023-04-10T01:59:55.693Z,6.94
2023-04-10T02:02:26.537Z,6.93
2023-04-10T02:05:00.307Z,6.89
2023-04-10T02:07:38.713Z,6.85
2023-04-10T02:10:14.088Z,6.82
2023-04-10T02:12:49.652Z,6.78
2023-04-10T02:15:24.405Z,6.76
2023-04-10T02:17:55.842Z,6.74
2023-04-10T02:20:27.672Z,6.68
2023-04-10T02:23:00.339Z,6.64
2023-04-10T02:25:30.954Z,6.64
2023-04-10T02:28:01.319Z,6.61
2023-04-10T02:30:34.785Z,6.59
2023-04-10T02:33:05.182Z,6.54
2023-04-10T02:35:39.636Z,6.52
2023-04-10T02:38:09.980Z,6.47
2023-04-10T02:40:40.266Z,6.37
2023-04-10T02:43:10.626Z,6.38
2023-04-10T02:45:44.071Z,6.37
2023-04-10T02:48:16.686Z,6.31
2023-04-10T02:50:47.695Z,6.40
2023-04-10T02:53:20.181Z,6.38
2023-04-10T02:55:50.509Z,6.32
2023-04-10T02:58:21.556Z,6.25
2023-04-10T03:00:55.716Z,6.23
2023-04-10T03:03:26.276Z,6.19
2023-04-10T03:05:57.359Z,6.20
2023-04-10T03:08:27.713Z,6.16
2023-04-10T03:10:58.130Z,6.13
2023-04-10T03:13:28.417Z,6.15
2023-04-10T03:16:01.342Z,6.09
2023-04-10T03:18:32.218Z,6.04
2023-04-10T03:21:02.932Z,6.03
2023-04-10T03:23:33.466Z,6.03
2023-04-10T03:26:04.908Z,5.99
2023-04-10T03:28:36.875Z,6.02
2023-04-10T03:31:10.910Z,6.00
2023-04-10T03:33:41.192Z,5.96
2023-04-10T03:36:12.467Z,5.97
2023-04-10T03:38:42.772Z,5.87
2023-04-10T03:41:13.811Z,5.92
2023-04-10T03:43:44.051Z,5.97
2023-04-10T03:46:17.225Z,5.98
2023-04-10T03:48:47.806Z,5.99
2023-04-10T03:51:18.159Z,5.97
2023-04-10T03:53:54.931Z,5.97
2023-04-10T03:56:26.403Z,5.93
2023-04-10T03:58:56.642Z,5.84
2023-04-10T04:01:29.408Z,5.80
2023-04-10T04:04:00.314Z,5.75
2023-04-10T04:06:32.123Z,5.79
2023-04-10T04:09:02.369Z,5.81
2023-04-10T04:11:32.752Z,5.83
2023-04-10T04:14:03.054Z,5.80
2023-04-10T04:16:36.085Z,5.86
2023-04-10T04:19:06.494Z,5.88
2023-04-10T04:21:36.705Z,5.90
2023-04-10T04:24:07.237Z,5.95
2023-04-10T04:26:37.538Z,6.00
2023-04-10T04:29:07.841Z,6.11
2023-04-10T04:31:40.895Z,6.16
2023-04-10T04:34:11.161Z,6.20
2023-04-10T04:36:41.386Z,6.26
2023-04-10T04:39:11.781Z,6.28
2023-04-10T04:41:42.151Z,6.31
2023-04-10T04:44:14.581Z,6.34
2023-04-10T04:46:47.482Z,6.17
2023-04-10T04:49:17.774Z,6.33
2023-04-10T04:51:50.106Z,6.37
2023-04-10T04:54:20.509Z,6.38
2023-04-10T04:56:50.897Z,6.44
2023-04-10T04:59:22.573Z,6.44
2023-04-10T05:01:57.014Z,6.52
2023-04-10T05:04:27.656Z,6.56
2023-04-10T05:06:58.128Z,6.59
2023-04-10T05:09:28.399Z,6.68
2023-04-10T05:12:05.747Z,6.77
2023-04-10T05:14:38.471Z,6.89
2023-04-10T05:17:11.435Z,7.03
2023-04-10T05:19:42.012Z,7.15
2023-04-10T05:22:12.400Z,7.29
2023-04-10T05:24:42.659Z,7.47
2023-04-10T05:27:12.931Z,7.60
2023-04-10T05:29:43.276Z,7.83
2023-04-10T05:32:16.852Z,8.04
2023-04-10T05:34:47.277Z,8.27
2023-04-10T05:37:17.519Z,8.24
2023-04-10T05:39:48.266Z,8.50
2023-04-10T05:42:18.539Z,8.52
2023-04-10T05:44:48.845Z,8.54
2023-04-10T05:47:21.673Z,8.57
2023-04-10T05:49:51.928Z,8.65
2023-04-10T05:52:25.155Z,8.82
2023-04-10T05:54:55.344Z,8.92
2023-04-10T05:57:25.877Z,9.17
2023-04-10T05:59:56.335Z,9.36
2023-04-10T06:02:29.492Z,9.38
2023-04-10T06:05:00.088Z,9.60
2023-04-10T06:07:30.410Z,9.78
2023-04-10T06:10:01.340Z,9.80
2023-04-10T06:12:31.536Z,9.79
2023-04-10T06:15:01.882Z,9.58
2023-04-10T06:17:34.849Z,9.95
2023-04-10T06:20:06.466Z,10.22
2023-04-10T06:22:36.827Z,10.49
2023-04-10T06:25:08.409Z,10.97
2023-04-10T06:27:38.949Z,11.33
2023-04-10T06:30:11.515Z,12.00
2023-04-10T06:32:45.006Z,12.51
2023-04-10T06:35:15.322Z,12.68
2023-04-10T06:37:47.482Z,13.04
2023-04-10T06:40:20.683Z,12.91
2023-04-10T06:42:50.933Z,12.79
2023-04-10T06:45:23.777Z,12.82
2023-04-10T06:47:57.028Z,12.92
2023-04-10T06:50:27.488Z,13.36
2023-04-10T06:53:00.194Z,13.72
2023-04-10T06:55:32.244Z,13.78
2023-04-10T06:58:03.149Z,13.70
2023-04-10T07:00:34.089Z,13.70
2023-04-10T07:03:07.073Z,13.69
2023-04-10T07:05:38.633Z,13.57
2023-04-10T07:08:13.539Z,13.30
2023-04-10T07:10:43.964Z,13.27
2023-04-10T07:13:14.470Z,13.25
2023-04-10T07:15:44.989Z,12.90
2023-04-10T07:18:17.886Z,12.89
2023-04-10T07:20:51.320Z,12.87
2023-04-10T07:23:21.547Z,12.80
2023-04-10T07:25:52.410Z,12.77
2023-04-10T07:28:22.818Z,12.60
2023-04-10T07:30:53.095Z,12.76
2023-04-10T07:33:29.081Z,12.64
2023-04-10T07:35:59.416Z,12.40
2023-04-10T07:38:29.733Z,12.64
2023-04-10T07:41:00.399Z,12.69
2023-04-10T07:43:35.936Z,12.68
2023-04-10T07:46:06.410Z,12.86
2023-04-10T07:48:39.327Z,12.83
2023-04-10T07:51:12.579Z,12.79
2023-04-10T07:53:43.057Z,12.76
2023-04-10T07:56:20.260Z,12.81
2023-04-10T07:58:51.058Z,12.72
2023-04-10T08:01:21.754Z,12.57
2023-04-10T08:03:55.638Z,12.69
2023-04-10T08:06:26.161Z,12.51
2023-04-10T08:08:59.053Z,12.62
2023-04-10T08:11:30.960Z,12.49
2023-04-10T08:14:02.631Z,12.59
2023-04-10T08:16:34.738Z,12.60
2023-04-10T08:19:08.341Z,12.42
2023-04-10T08:21:38.669Z,12.32
2023-04-10T08:24:09.252Z,12.22
2023-04-10T08:26:39.629Z,12.04
2023-04-10T08:29:09.913Z,12.08
2023-04-10T08:31:40.922Z,12.02
2023-04-10T08:34:14.793Z,12.04
2023-04-10T08:36:44.793Z,11.97
2023-04-10T08:39:15.066Z,11.91
2023-04-10T08:41:45.798Z,11.90
2023-04-10T08:44:16.863Z,11.81
2023-04-10T08:46:48.221Z,11.86
2023-04-10T08:49:27.960Z,11.95
2023-04-10T08:52:00.708Z,11.97
2023-04-10T08:54:36.162Z,12.01
2023-04-10T08:57:08.562Z,11.81
2023-04-10T08:59:40.379Z,11.72
2023-04-10T09:09:06.125Z,11.95
2023-04-10T09:12:09.426Z,11.74
2023-04-10T09:14:40.856Z,11.83
2023-04-10T09:17:19.500Z,11.70
2023-04-10T09:19:52.782Z,11.80
2023-04-10T09:22:33.478Z,11.73
2023-04-10T09:25:08.274Z,11.90
2023-04-10T09:27:42.441Z,12.07
2023-04-10T09:30:29.185Z,12.27
2023-04-10T09:33:00.612Z,12.70
2023-04-10T09:35:40.795Z,13.16
2023-04-10T09:38:19.238Z,13.42
2023-04-10T09:40:53.756Z,13.69
2023-04-10T09:43:27.511Z,13.50
2023-04-10T09:45:59.391Z,13.63
2023-04-10T09:48:29.751Z,13.77
2023-04-10T09:51:31.976Z,14.17
2023-04-10T09:54:02.589Z,13.93
2023-04-10T09:56:41.172Z,13.70
2023-04-10T09:59:16.886Z,13.66
2023-04-10T10:01:47.905Z,13.31
2023-04-10T10:04:19.291Z,13.28
2023-04-10T10:06:49.764Z,12.74
2023-04-10T10:09:20.440Z,12.72
2023-04-10T10:11:59.254Z,12.86
2023-04-10T10:14:31.861Z,12.64
2023-04-10T10:17:26.535Z,12.38
2023-04-10T10:20:04.195Z,12.18
2023-04-10T10:23:02.130Z,12.39
2023-04-10T10:25:34.225Z,12.40
2023-04-10T10:28:08.577Z,12.39
2023-04-10T10:30:40.600Z,12.46
2023-04-10T10:33:11.708Z,12.37
2023-04-10T10:35:43.787Z,12.52
2023-04-10T10:38:14.669Z,12.55
2023-04-10T10:40:55.369Z,12.78
2023-04-10T10:43:38.590Z,12.80
2023-04-10T10:46:15.878Z,13.02
2023-04-10T10:48:58.885Z,13.13
2023-04-10T10:51:48.740Z,13.37
2023-04-10T10:54:32.434Z,13.47
2023-04-10T10:57:03.282Z,13.60
2023-04-10T11:00:00.276Z,13.74
2023-04-10T11:02:30.809Z,13.68
2023-04-10T11:05:01.147Z,13.79
2023-04-10T11:08:13.526Z,13.75
2023-04-10T11:11:02.832Z,13.61
2023-04-10T11:13:33.190Z,13.77
2023-04-10T11:16:10.338Z,13.95
2023-04-10T11:19:14.265Z,13.99
2023-04-10T11:22:05.417Z,14.05
2023-04-10T11:25:00.820Z,14.33
2023-04-10T11:27:45.183Z,14.51
2023-04-10T11:30:37.840Z,14.53
2023-04-10T11:33:11.169Z,14.52
2023-04-10T11:35:41.875Z,14.34
2023-04-10T11:38:17.627Z,14.34
2023-04-10T11:41:04.430Z,14.40
2023-04-10T11:43:36.147Z,14.59
2023-04-10T11:46:08.965Z,14.62
2023-04-10T11:48:45.404Z,14.52
2023-04-10T11:51:17.217Z,14.62
2023-04-10T11:53:47.555Z,14.77
2023-04-10T11:56:22.769Z,15.02
2023-04-10T11:58:56.315Z,14.83
2023-04-10T12:01:27.375Z,15.11
2023-04-10T12:04:00.880Z,15.03
2023-04-10T12:06:32.118Z,14.86
2023-04-10T12:09:04.805Z,15.23
2023-04-10T12:11:37.643Z,15.27
2023-04-10T12:14:08.256Z,15.34
2023-04-10T12:16:38.911Z,15.46
2023-04-10T12:19:12.084Z,15.47
2023-04-10T12:21:44.129Z,15.35
2023-04-10T12:24:15.019Z,15.40
2023-04-10T12:26:52.156Z,15.49
2023-04-10T12:29:27.887Z,15.75
2023-04-10T12:31:58.234Z,15.82
2023-04-10T12:34:31.279Z,15.58
2023-04-10T12:37:01.547Z,15.59
2023-04-10T12:39:32.167Z,15.54
2023-04-10T12:42:16.116Z,15.47
2023-04-10T12:44:56.758Z,15.33
2023-04-10T12:47:27.884Z,15.57
2023-04-10T12:50:13.103Z,15.88
2023-04-10T12:52:45.919Z,15.98
2023-04-10T12:55:17.691Z,15.96
2023-04-10T12:57:49.317Z,15.86
2023-04-10T13:00:21.843Z,16.23
2023-04-10T13:02:52.547Z,16.26
2023-04-10T13:05:25.694Z,16.70
2023-04-10T13:07:56.011Z,16.64
2023-04-10T13:10:27.084Z,17.08
2023-04-10T13:12:57.432Z,17.15
2023-04-10T13:15:27.703Z,17.33
2023-04-10T13:17:59.612Z,17.41
2023-04-10T13:20:33.203Z,17.44
2023-04-10T13:30:26.258Z,17.15
2023-04-10T13:32:56.794Z,17.21
2023-04-10T13:35:27.126Z,17.43
2023-04-10T13:38:00.538Z,17.39
2023-04-10T13:40:31.425Z,17.38
2023-04-10T13:43:01.799Z,17.56
2023-04-10T13:45:32.201Z,18.00
2023-04-10T13:48:07.416Z,18.05
2023-04-10T13:50:40.385Z,17.51
2023-04-10T13:53:13.340Z,17.31
2023-04-10T14:09:35.102Z,15.71
2023-04-10T14:12:05.665Z,15.77
2023-04-10T14:14:36.016Z,15.82
2023-04-10T14:17:06.387Z,15.73
2023-04-10T14:19:38.106Z,15.76
2023-04-10T14:22:08.869Z,15.50
2023-04-10T14:24:41.750Z,15.63
2023-04-10T14:27:13.327Z,15.91
2023-04-10T14:29:53.918Z,15.84
2023-04-10T14:32:25.286Z,15.65
2023-04-10T14:34:55.667Z,15.55
2023-04-10T14:37:26.128Z,15.47
2023-04-10T14:39:59.224Z,15.40
2023-04-10T14:42:29.715Z,15.31
2023-04-10T14:45:02.893Z,15.43
2023-04-10T14:47:33.517Z,15.41
2023-04-10T14:50:04.206Z,15.35
2023-04-10T14:52:37.270Z,15.16
2023-04-10T14:55:13.703Z,14.94
2023-04-10T14:57:48.982Z,14.67
2023-04-10T15:00:20.467Z,14.60
2023-04-10T15:02:50.976Z,14.51
2023-04-10T15:05:21.693Z,14.18
2023-04-10T15:07:52.193Z,13.82
2023-04-10T15:10:25.699Z,13.86
2023-04-10T15:12:56.074Z,14.04
2023-04-10T15:15:26.349Z,14.06
2023-04-10T15:17:58.105Z,13.95
2023-04-10T15:20:29.111Z,13.96
2023-04-10T15:22:59.603Z,13.78
2023-04-10T15:25:32.514Z,13.93
2023-04-10T15:28:02.838Z,13.94
2023-04-10T15:30:33.815Z,13.93
2023-04-10T15:33:04.548Z,13.93
2023-04-10T15:35:37.039Z,13.95
2023-04-10T15:38:09.975Z,13.99
2023-04-10T15:40:43.961Z,14.03
2023-04-10T15:43:14.113Z,14.07
2023-04-10T15:45:44.659Z,14.15
2023-04-10T15:48:15.317Z,14.24
2023-04-10T15:50:45.786Z,14.30
2023-04-10T15:53:16.297Z,14.32
2023-04-10T15:55:49.370Z,14.42
2023-04-10T15:58:19.836Z,14.39
2023-04-10T16:00:50.164Z,14.45
2023-04-10T16:03:20.894Z,14.45
2023-04-10T16:05:51.190Z,14.45
2023-04-10T16:08:21.615Z,14.36
2023-04-10T16:10:54.526Z,14.26
2023-04-10T16:13:25.084Z,14.15
2023-04-10T16:15:57.757Z,14.06
2023-04-10T16:18:30.521Z,14.02
2023-04-10T16:21:01.056Z,13.99
2023-04-10T16:23:35.428Z,13.94
2023-04-10T16:26:08.890Z,13.91
2023-04-10T16:28:40.286Z,13.79
2023-04-10T16:31:10.944Z,13.84
2023-04-10T16:33:41.849Z,13.84
2023-04-10T16:36:15.356Z,13.83
2023-04-10T16:38:45.878Z,13.94
2023-04-10T16:41:21.889Z,13.95
2023-04-10T16:43:52.375Z,13.78
2023-04-10T16:46:23.496Z,13.95
2023-04-10T16:48:54.180Z,13.86
2023-04-10T16:51:27.220Z,13.83
2023-04-10T16:54:00.037Z,13.81
2023-04-10T16:56:37.709Z,13.82
2023-04-10T16:59:12.465Z,13.80
2023-04-10T17:01:42.759Z,13.58
2023-04-10T17:04:13.735Z,13.32
2023-04-10T17:06:44.067Z,13.28
2023-04-10T17:09:14.492Z,13.32
2023-04-10T17:11:47.393Z,13.23
2023-04-10T17:14:17.879Z,13.20
2023-04-10T17:16:48.418Z,13.05
2023-04-10T17:19:19.613Z,12.88
2023-04-10T17:21:49.917Z,12.88
2023-04-10T17:24:33.162Z,12.75
2023-04-10T17:27:06.237Z,12.68
2023-04-10T17:29:39.953Z,12.55
2023-04-10T17:32:11.511Z,12.47
2023-04-10T17:34:41.805Z,12.35
2023-04-10T17:37:13.000Z,12.34
2023-04-10T17:39:46.304Z,12.29
2023-04-10T17:42:19.697Z,12.26
2023-04-10T17:44:54.978Z,12.22
2023-04-10T17:47:25.306Z,12.20
2023-04-10T17:49:59.954Z,12.16
2023-04-10T17:52:30.158Z,12.11
2023-04-10T17:55:03.103Z,12.15
2023-04-10T17:57:36.041Z,12.13
2023-04-10T18:00:15.781Z,12.13
2023-04-10T18:02:46.368Z,12.10
2023-04-10T18:05:16.720Z,12.06
2023-04-10T18:07:48.975Z,12.04
2023-04-10T18:10:19.642Z,12.02
2023-04-10T18:12:53.133Z,12.00
2023-04-10T18:15:23.410Z,11.99
2023-04-10T18:17:53.836Z,11.88
2023-04-10T18:20:24.252Z,11.81
2023-04-10T18:22:54.638Z,11.78
2023-04-10T18:25:25.238Z,11.77
2023-04-10T18:28:13.541Z,11.77
2023-04-10T18:30:45.231Z,11.71
2023-04-10T18:39:14.630Z,11.50
2023-04-10T18:41:45.380Z,11.45
2023-04-10T18:44:18.339Z,11.42
2023-04-10T18:47:01.354Z,11.39
2023-04-10T18:49:34.522Z,11.36
2023-04-10T18:55:33.141Z,11.22
2023-04-10T18:58:03.925Z,11.16
2023-04-10T19:00:37.111Z,11.17
2023-04-10T19:03:08.382Z,11.12
2023-04-10T19:05:38.876Z,11.09
2023-04-10T19:08:09.478Z,11.02
2023-04-10T19:10:40.941Z,10.99
2023-04-10T19:13:12.289Z,10.93
2023-04-10T19:15:47.648Z,10.87
2023-04-10T19:18:19.033Z,10.79
2023-04-10T19:20:52.846Z,10.69
2023-04-10T19:23:24.420Z,10.58
2023-04-10T19:33:02.547Z,10.15
2023-04-10T19:35:33.390Z,10.06
2023-04-10T19:38:03.859Z,9.99
2023-04-10T19:40:37.246Z,9.92
2023-04-10T19:43:07.620Z,9.86
2023-04-10T19:45:39.911Z,9.80
2023-04-10T19:48:14.555Z,9.71
2023-04-10T19:50:49.267Z,9.63
2023-04-10T19:53:21.750Z,9.61
2023-04-10T19:55:54.111Z,9.52
2023-04-10T19:58:39.980Z,9.49
2023-04-10T20:01:13.042Z,9.48
2023-04-10T20:10:39.345Z,9.38
2023-04-10T20:13:10.807Z,9.33
2023-04-10T20:15:41.383Z,9.30
2023-04-10T20:18:12.644Z,9.24
2023-04-10T20:20:43.533Z,9.18
2023-04-10T20:23:14.507Z,9.02
2023-04-10T20:25:48.685Z,9.11
2023-04-10T20:28:21.985Z,9.03
2023-04-10T20:34:05.528Z,8.86
2023-04-10T20:36:38.614Z,8.78
2023-04-10T20:42:41.224Z,8.44
2023-04-10T20:45:13.190Z,8.52
2023-04-10T20:47:43.624Z,8.52
2023-04-10T20:50:14.837Z,8.48
2023-04-10T20:52:45.694Z,8.42
2023-04-10T20:55:17.267Z,8.41
2023-04-10T20:57:50.466Z,8.38
2023-04-10T21:00:21.476Z,8.35
2023-04-10T21:02:51.934Z,8.29
2023-04-10T21:05:24.433Z,8.20
2023-04-10T21:07:54.870Z,8.12
2023-04-10T21:10:25.561Z,8.11
2023-04-10T21:12:58.453Z,8.08
2023-04-10T21:15:28.887Z,8.04
2023-04-10T21:17:59.797Z,8.03
2023-04-10T21:20:31.180Z,7.98
2023-04-10T21:23:01.564Z,8.00
2023-04-10T21:25:35.058Z,8.00
2023-04-10T21:28:11.409Z,7.94
2023-04-10T21:30:42.335Z,7.97
2023-04-10T21:33:12.615Z,7.98
2023-04-10T21:35:48.708Z,7.92
2023-04-10T21:38:19.097Z,8.02
2023-04-10T21:40:54.223Z,8.07
2023-04-10T21:43:29.502Z,8.15
2023-04-10T21:46:03.319Z,8.19
2023-04-10T21:48:33.582Z,8.22
2023-04-10T21:51:05.235Z,8.14
2023-04-10T21:53:35.548Z,8.18
2023-04-10T21:56:05.799Z,8.16
2023-04-10T21:58:41.233Z,8.13
2023-04-10T22:01:13.303Z,8.11
2023-04-10T22:03:43.908Z,8.10
2023-04-10T22:06:14.911Z,8.12
2023-04-10T22:08:45.684Z,8.23
2023-04-10T22:11:18.688Z,8.32
2023-04-10T22:13:52.746Z,8.41
2023-04-10T22:16:25.995Z,8.52
2023-04-10T22:18:56.794Z,8.51
2023-04-10T22:21:27.608Z,8.56
2023-04-10T22:23:57.912Z,8.61
2023-04-10T22:26:30.502Z,8.62
2023-04-10T22:29:03.623Z,8.56
2023-04-10T22:31:34.041Z,8.53
2023-04-10T22:34:04.626Z,8.50
2023-04-10T22:36:36.480Z,8.51
2023-04-10T22:39:07.298Z,8.55
2023-04-10T22:41:37.612Z,8.63
2023-04-10T22:44:10.464Z,8.68
2023-04-10T22:46:40.848Z,8.73
2023-04-10T22:49:17.338Z,8.74
2023-04-10T22:51:48.635Z,8.83
2023-04-10T22:54:19.204Z,8.84
2023-04-10T22:56:51.045Z,8.70
2023-04-10T22:59:26.307Z,8.94
2023-04-10T23:01:56.837Z,8.97
2023-04-10T23:04:28.270Z,9.01
2023-04-10T23:06:58.553Z,9.04
2023-04-10T23:09:28.939Z,9.02
2023-04-10T23:11:59.436Z,9.10
2023-04-10T23:21:46.122Z,9.25
2023-04-10T23:24:16.654Z,9.20
2023-04-10T23:26:46.953Z,9.24
2023-04-10T23:29:17.190Z,9.23
2023-04-10T23:31:47.447Z,9.17
2023-04-10T23:34:19.047Z,9.17
2023-04-10T23:36:51.992Z,9.15
2023-04-10T23:39:22.630Z,9.15
2023-04-10T23:41:53.050Z,9.08
2023-04-10T23:44:23.414Z,9.08
2023-04-10T23:46:54.002Z,9.06
2023-04-10T23:53:08.936Z,9.07
2023-04-10T23:55:39.740Z,8.93
2023-04-10T23:58:11.010Z,8.94
